Terminal Aerodrome Forecast
Issued by NWS Houston/Galveston TX

Home | Current Version | Previous Version | Text Only | Print | Product List | Glossary On
Versions: 1 2 3 4 5 6 7 8 9 10 11 12 13 14 15 16 17 18 19 20 21 22 23 24 25 26 27 28 29 30 31 32 33 34 35 36 37 38 39 40 41 42 43 44 45 46 47 48 49 50
710
FTUS44 KHGX 282345 RRA
TAFHOU
TAF
KHOU 282345Z 2900/2924 15016G24KT P6SM BKN022 BKN250
     FM290300 15015KT P6SM SCT015 BKN025
     FM290900 15012KT P6SM VCSH BKN009 OVC015
     FM291500 15013G22KT P6SM VCTS BKN020CB BKN030 OVC250
      TEMPO 2918/2920 VRB10G25KT 3SM TSRA BKN025CB OVC060
     FM292200 18011G18KT P6SM OVC050=

USA.gov is the U.S. government's official web portal to all federal, state and local government web resources and services.